createdAt,value
2023-01-17T00:01:34.191Z,1.30
2023-01-17T00:04:19.948Z,1.30
2023-01-17T00:07:16.365Z,1.30
2023-01-17T00:09:57.355Z,1.30
2023-01-17T00:12:27.888Z,1.30
2023-01-17T00:15:03.205Z,1.20
2023-01-17T00:17:31.375Z,1.20
2023-01-17T00:20:21.510Z,1.20
2023-01-17T00:23:07.288Z,1.20
2023-01-17T00:25:59.197Z,1.20
2023-01-17T00:28:26.717Z,1.20
2023-01-17T00:30:53.604Z,1.20
2023-01-17T00:33:21.136Z,1.10
2023-01-17T00:35:48.285Z,1.10
2023-01-17T00:38:18.812Z,1.10
2023-01-17T00:40:46.060Z,1.00
2023-01-17T00:43:32.294Z,1.10
2023-01-17T00:46:18.142Z,1.10
2023-01-17T00:49:03.422Z,1.00
2023-01-17T00:51:49.648Z,1.00
2023-01-17T00:54:36.711Z,1.00
2023-01-17T00:57:22.859Z,1.00
2023-01-17T01:00:08.778Z,1.00
2023-01-17T01:02:57.331Z,1.00
2023-01-17T01:05:42.497Z,0.90
2023-01-17T01:08:37.847Z,0.90
2023-01-17T01:11:26.616Z,0.90
2023-01-17T01:14:12.599Z,0.90
2023-01-17T01:16:58.314Z,0.90
2023-01-17T01:19:48.268Z,0.90
2023-01-17T01:22:34.097Z,0.90
2023-01-17T01:25:21.831Z,0.90
2023-01-17T01:28:07.660Z,0.90
2023-01-17T01:30:53.499Z,0.90
2023-01-17T01:33:20.647Z,0.80
2023-01-17T01:35:51.837Z,0.80
2023-01-17T01:38:20.360Z,0.80
2023-01-17T01:40:48.916Z,0.80
2023-01-17T01:43:17.960Z,0.80
2023-01-17T01:45:50.299Z,0.80
2023-01-17T01:48:22.949Z,0.80
2023-01-17T01:50:50.099Z,0.80
2023-01-17T01:53:17.490Z,0.70
2023-01-17T01:55:47.781Z,0.80
2023-01-17T01:58:19.237Z,0.70
2023-01-17T02:00:46.490Z,0.70
2023-01-17T02:03:26.246Z,0.70
2023-01-17T02:05:53.376Z,0.70
2023-01-17T02:08:21.754Z,0.70
2023-01-17T02:10:51.309Z,0.70
2023-01-17T02:13:19.344Z,0.70
2023-01-17T02:15:46.495Z,0.60
2023-01-17T02:18:22.337Z,0.60
2023-01-17T02:21:03.725Z,0.60
2023-01-17T02:23:51.881Z,0.60
2023-01-17T02:26:45.632Z,0.60
2023-01-17T02:29:24.823Z,0.60
2023-01-17T02:32:10.778Z,0.60
2023-01-17T02:35:06.942Z,0.50
2023-01-17T02:38:17.464Z,0.60
2023-01-17T02:41:07.886Z,0.50
2023-01-17T02:43:34.935Z,0.50
2023-01-17T02:46:01.923Z,0.50
2023-01-17T02:48:30.130Z,0.40
2023-01-17T02:51:12.514Z,0.40
2023-01-17T02:54:04.348Z,0.40
2023-01-17T02:56:54.028Z,0.30
2023-01-17T02:59:45.788Z,0.30
2023-01-17T03:02:21.302Z,0.40
2023-01-17T03:04:49.599Z,0.40
2023-01-17T03:07:21.940Z,0.40
2023-01-17T03:09:49.679Z,0.40
2023-01-17T03:12:16.644Z,0.40
2023-01-17T03:14:43.640Z,0.40
2023-01-17T03:17:10.861Z,0.40
2023-01-17T03:19:37.799Z,0.40
2023-01-17T03:22:06.597Z,0.40
2023-01-17T03:24:33.629Z,0.40
2023-01-17T03:27:00.511Z,0.50
2023-01-17T03:29:27.411Z,0.40
2023-01-17T03:31:56.857Z,0.40
2023-01-17T03:34:23.965Z,0.40
2023-01-17T03:36:50.917Z,0.40
2023-01-17T03:39:18.064Z,0.40
2023-01-17T03:41:45.022Z,0.40
2023-01-17T03:44:12.345Z,0.40
2023-01-17T03:46:39.516Z,0.40
2023-01-17T03:49:06.720Z,0.40
2023-01-17T03:51:34.120Z,0.40
2023-01-17T03:54:01.173Z,0.40
2023-01-17T03:56:28.322Z,0.30
2023-01-17T03:58:55.378Z,0.30
2023-01-17T04:01:22.778Z,0.30
2023-01-17T04:03:49.878Z,0.30
2023-01-17T04:06:21.492Z,0.30
2023-01-17T04:08:48.460Z,0.30
2023-01-17T04:11:15.399Z,0.30
2023-01-17T04:13:42.342Z,0.30
2023-01-17T04:16:16.745Z,0.30
2023-01-17T04:18:43.934Z,0.30
2023-01-17T04:21:11.138Z,0.20
2023-01-17T04:23:38.161Z,0.30
2023-01-17T04:26:05.593Z,0.20
2023-01-17T04:28:35.344Z,0.20
2023-01-17T04:31:02.480Z,0.20
2023-01-17T04:33:29.842Z,0.20
2023-01-17T04:35:59.323Z,0.20
2023-01-17T04:38:26.480Z,0.10
2023-01-17T04:40:53.487Z,0.10
2023-01-17T04:43:22.887Z,0.10
2023-01-17T04:46:00.204Z,0.10
2023-01-17T04:48:27.473Z,0.10
2023-01-17T04:51:01.479Z,0.00
2023-01-17T04:53:28.663Z,0.00
2023-01-17T04:55:55.638Z,0.00
2023-01-17T04:58:23.292Z,0.00
2023-01-17T05:00:51.784Z,0.00
2023-01-17T05:03:19.645Z,0.00
2023-01-17T05:05:46.811Z,-0.10
2023-01-17T05:08:13.941Z,-0.10
2023-01-17T05:10:45.332Z,-0.10
2023-01-17T05:13:15.209Z,-0.20
2023-01-17T05:15:42.196Z,-0.10
2023-01-17T05:18:18.254Z,-0.20
2023-01-17T05:20:45.254Z,-0.20
2023-01-17T05:23:12.207Z,-0.20
2023-01-17T05:25:44.569Z,-0.30
2023-01-17T05:28:12.895Z,-0.30
2023-01-17T05:30:40.382Z,-0.30
2023-01-17T05:33:08.358Z,-0.30
2023-01-17T05:35:35.536Z,-0.30
2023-01-17T05:38:03.702Z,-0.40
2023-01-17T05:40:34.889Z,-0.40
2023-01-17T05:43:03.212Z,-0.40
2023-01-17T05:45:31.017Z,-0.40
2023-01-17T05:47:58.679Z,-0.40
2023-01-17T05:50:31.485Z,-0.40
2023-01-17T05:52:59.924Z,-0.40
2023-01-17T05:55:27.685Z,-0.40
2023-01-17T05:57:55.178Z,-0.40
2023-01-17T06:00:22.695Z,-0.40
2023-01-17T06:02:52.124Z,-0.40
2023-01-17T06:05:19.154Z,-0.50
2023-01-17T06:07:47.024Z,-0.50
2023-01-17T06:10:15.122Z,-0.50
2023-01-17T06:12:43.307Z,-0.50
2023-01-17T06:15:13.771Z,-0.50
2023-01-17T06:17:40.877Z,-0.50
2023-01-17T06:20:08.859Z,-0.60
2023-01-17T06:22:36.002Z,-0.60
2023-01-17T06:25:03.149Z,-0.60
2023-01-17T06:27:30.207Z,-0.60
2023-01-17T06:29:57.137Z,-0.60
2023-01-17T06:32:24.231Z,-0.60
2023-01-17T06:34:51.118Z,-0.60
2023-01-17T06:37:18.029Z,-0.70
2023-01-17T06:39:45.075Z,-0.70
2023-01-17T06:42:12.145Z,-0.70
2023-01-17T06:44:39.616Z,-0.70
2023-01-17T06:47:06.869Z,-0.70
2023-01-17T06:49:33.877Z,-0.70
2023-01-17T06:52:03.089Z,-0.70
2023-01-17T06:54:29.978Z,-0.70
2023-01-17T06:56:56.959Z,-0.70
2023-01-17T06:59:23.863Z,-0.80
2023-01-17T07:01:51.128Z,-0.80
2023-01-17T07:04:18.395Z,-0.80
2023-01-17T07:06:47.910Z,-0.80
2023-01-17T07:09:14.994Z,-0.80
2023-01-17T07:11:41.920Z,-0.80
2023-01-17T07:14:13.045Z,-0.80
2023-01-17T07:16:40.055Z,-0.80
2023-01-17T07:19:07.067Z,-0.80
2023-01-17T07:21:34.182Z,-0.90
2023-01-17T07:24:01.180Z,-0.90
2023-01-17T07:26:28.127Z,-0.90
2023-01-17T07:28:55.136Z,-0.90
2023-01-17T07:31:22.144Z,-0.90
2023-01-17T07:33:49.269Z,-0.90
2023-01-17T07:36:16.381Z,-0.90
2023-01-17T07:38:44.981Z,-0.90
2023-01-17T07:41:12.135Z,-0.90
2023-01-17T07:43:39.287Z,-0.90
2023-01-17T07:46:07.895Z,-0.90
2023-01-17T07:48:34.913Z,-0.90
2023-01-17T07:51:01.781Z,-0.90
2023-01-17T07:53:30.300Z,-0.90
2023-01-17T07:56:03.819Z,-0.90
2023-01-17T07:58:31.339Z,-0.90
2023-01-17T08:01:09.411Z,-0.90
2023-01-17T08:03:40.143Z,-0.90
2023-01-17T08:06:21.395Z,-0.90
2023-01-17T08:08:48.726Z,-0.90
2023-01-17T08:11:15.947Z,-0.90
2023-01-17T08:13:43.025Z,-0.90
2023-01-17T08:16:12.869Z,-0.90
2023-01-17T08:18:40.219Z,-0.90
2023-01-17T08:21:18.445Z,-0.90
2023-01-17T08:23:49.281Z,-0.90
2023-01-17T08:26:21.670Z,-0.80
2023-01-17T08:29:00.633Z,-0.80
2023-01-17T08:31:34.331Z,-0.80
2023-01-17T08:34:01.879Z,-0.80
2023-01-17T08:36:31.601Z,-0.80
2023-01-17T08:38:59.032Z,-0.70
2023-01-17T08:41:27.943Z,-0.70
2023-01-17T08:43:55.055Z,-0.70
2023-01-17T08:46:22.711Z,-0.70
2023-01-17T08:48:55.924Z,-0.60
2023-01-17T08:51:27.562Z,-0.60
2023-01-17T08:53:55.300Z,-0.60
2023-01-17T08:56:23.880Z,-0.60
2023-01-17T08:58:54.005Z,-0.50
2023-01-17T09:01:21.195Z,-0.50
2023-01-17T09:03:54.345Z,-0.40
2023-01-17T09:06:21.367Z,-0.40
2023-01-17T09:08:49.753Z,-0.40
2023-01-17T09:11:17.462Z,-0.40
2023-01-17T09:13:46.563Z,-0.30
2023-01-17T09:16:13.517Z,-0.30
2023-01-17T09:18:43.740Z,-0.20
2023-01-17T09:21:14.457Z,-0.20
2023-01-17T09:23:47.244Z,-0.10
2023-01-17T09:26:28.331Z,-0.10
2023-01-17T09:28:55.624Z,-0.10
2023-01-17T09:31:23.080Z,0.00
2023-01-17T09:33:52.772Z,0.00
2023-01-17T09:36:20.360Z,0.10
2023-01-17T09:38:53.119Z,0.10
2023-01-17T09:41:31.101Z,0.20
2023-01-17T09:44:19.907Z,0.20
2023-01-17T09:46:50.313Z,0.20
2023-01-17T09:49:33.923Z,0.30
2023-01-17T09:52:04.611Z,0.30
2023-01-17T09:54:37.762Z,0.30
2023-01-17T09:57:22.427Z,0.40
2023-01-17T10:00:04.884Z,0.40
2023-01-17T10:02:48.293Z,0.40
2023-01-17T10:05:35.310Z,0.50
2023-01-17T10:08:20.653Z,0.50
2023-01-17T10:11:14.055Z,0.50
2023-01-17T10:13:57.506Z,0.60
2023-01-17T10:16:42.774Z,0.60
2023-01-17T10:19:15.940Z,0.60
2023-01-17T10:22:27.214Z,0.70
2023-01-17T10:25:16.730Z,0.70
2023-01-17T10:28:00.112Z,0.80
2023-01-17T10:30:32.071Z,0.80
2023-01-17T10:32:59.698Z,0.90
2023-01-17T10:35:29.569Z,0.90
2023-01-17T10:37:57.125Z,0.90
2023-01-17T10:40:41.456Z,1.00
2023-01-17T10:43:13.721Z,1.00
2023-01-17T10:45:43.688Z,1.00
2023-01-17T10:48:28.208Z,1.10
2023-01-17T10:52:02.123Z,1.10
2023-01-17T10:55:13.239Z,1.20
2023-01-17T10:57:50.945Z,1.20
2023-01-17T11:00:40.825Z,1.30
2023-01-17T11:03:10.381Z,1.30
2023-01-17T11:05:43.014Z,1.30
2023-01-17T11:08:23.383Z,1.30
2023-01-17T11:10:58.797Z,1.40
2023-01-17T11:13:34.106Z,1.40
2023-01-17T11:16:09.567Z,1.40
2023-01-17T11:18:46.070Z,1.50
2023-01-17T11:21:16.956Z,1.50
2023-01-17T11:23:54.849Z,1.50
2023-01-17T11:26:37.249Z,1.50
2023-01-17T11:29:15.173Z,1.60
2023-01-17T11:31:42.196Z,1.60
2023-01-17T11:34:22.605Z,1.70
2023-01-17T11:36:50.330Z,1.80
2023-01-17T11:39:20.213Z,1.80
2023-01-17T11:41:51.149Z,1.90
2023-01-17T11:44:24.401Z,1.90
2023-01-17T11:47:14.413Z,2.00
2023-01-17T11:49:42.465Z,2.10
2023-01-17T11:52:19.225Z,2.10
2023-01-17T11:54:47.477Z,2.10
2023-01-17T11:57:40.736Z,2.20
2023-01-17T12:00:19.482Z,2.30
2023-01-17T12:03:16.155Z,2.30
2023-01-17T12:05:53.782Z,2.40
2023-01-17T12:08:34.385Z,2.40
2023-01-17T12:11:22.207Z,2.40
2023-01-17T12:14:01.089Z,2.50
2023-01-17T12:16:33.874Z,2.50
2023-01-17T12:19:22.613Z,2.60
2023-01-17T12:22:33.912Z,2.60
2023-01-17T12:25:31.706Z,2.60
2023-01-17T12:28:22.741Z,2.60
2023-01-17T12:30:59.390Z,2.60
2023-01-17T12:33:50.504Z,2.70
2023-01-17T12:36:27.727Z,2.70
2023-01-17T12:38:56.714Z,2.70
2023-01-17T12:41:37.135Z,2.80
2023-01-17T12:44:04.298Z,2.70
2023-01-17T12:46:39.612Z,2.70
2023-01-17T12:49:24.089Z,2.80
2023-01-17T12:51:59.578Z,2.80
2023-01-17T12:54:33.671Z,2.80
2023-01-17T12:57:13.960Z,2.80
2023-01-17T12:59:49.063Z,2.80
2023-01-17T13:02:34.608Z,2.80
2023-01-17T13:05:31.046Z,2.80
2023-01-17T13:08:22.702Z,2.80
2023-01-17T13:10:58.471Z,2.80
2023-01-17T13:13:27.489Z,2.90
2023-01-17T13:16:12.861Z,2.90
2023-01-17T13:18:46.192Z,2.90
2023-01-17T13:21:31.924Z,3.00
2023-01-17T13:24:07.845Z,3.00
2023-01-17T13:27:00.917Z,3.00
2023-01-17T13:29:27.907Z,3.10
2023-01-17T13:32:24.096Z,3.10
2023-01-17T13:35:15.901Z,3.10
2023-01-17T13:38:07.418Z,3.20
2023-01-17T13:40:54.644Z,3.20
2023-01-17T13:43:24.043Z,3.20
2023-01-17T13:45:58.513Z,3.20
2023-01-17T13:48:44.383Z,3.20
2023-01-17T13:51:11.612Z,3.20
2023-01-17T13:53:41.520Z,3.20
2023-01-17T13:56:29.011Z,3.20
2023-01-17T13:59:02.813Z,3.20
2023-01-17T14:01:34.923Z,3.30
2023-01-17T14:04:02.975Z,3.20
2023-01-17T14:06:39.206Z,3.20
2023-01-17T14:09:21.363Z,3.20
2023-01-17T14:12:16.500Z,3.20
2023-01-17T14:14:51.279Z,3.20
2023-01-17T14:17:20.539Z,3.20
2023-01-17T14:19:51.129Z,3.20
2023-01-17T14:22:21.930Z,3.20
2023-01-17T14:25:17.825Z,3.20
2023-01-17T14:27:53.383Z,3.20
2023-01-17T14:30:27.984Z,3.20
2023-01-17T14:33:11.135Z,3.20
2023-01-17T14:35:41.792Z,3.20
2023-01-17T14:38:27.112Z,3.10
2023-01-17T14:40:59.346Z,3.20
2023-01-17T14:43:28.799Z,3.10
2023-01-17T14:46:24.984Z,3.10
2023-01-17T14:49:00.135Z,3.10
2023-01-17T14:51:29.856Z,3.10
2023-01-17T14:54:02.442Z,3.00
2023-01-17T14:56:30.487Z,3.10
2023-01-17T14:59:20.415Z,3.00
2023-01-17T15:02:06.819Z,3.00
2023-01-17T15:04:39.620Z,3.00
2023-01-17T15:07:07.056Z,3.00
2023-01-17T15:09:37.602Z,3.00
2023-01-17T15:12:05.046Z,3.00
2023-01-17T15:14:34.144Z,3.00
2023-01-17T15:17:25.017Z,3.00
2023-01-17T15:20:16.110Z,2.90
2023-01-17T15:22:43.335Z,2.90
2023-01-17T15:25:10.684Z,2.90
2023-01-17T15:27:37.968Z,2.90
2023-01-17T15:30:07.668Z,2.80
2023-01-17T15:32:34.661Z,2.90
2023-01-17T15:35:08.101Z,2.80
2023-01-17T15:37:39.956Z,2.80
2023-01-17T15:40:17.290Z,2.80
2023-01-17T15:42:44.901Z,2.80
2023-01-17T15:45:15.754Z,2.70
2023-01-17T15:47:45.589Z,2.70
2023-01-17T15:50:30.901Z,2.70
2023-01-17T15:53:02.730Z,2.70
2023-01-17T15:55:39.478Z,2.70
2023-01-17T15:58:27.964Z,2.70
2023-01-17T16:00:55.169Z,2.60
2023-01-17T16:03:23.236Z,2.60
2023-01-17T16:05:50.715Z,2.60
2023-01-17T16:08:28.406Z,2.50
2023-01-17T16:10:59.263Z,2.50
2023-01-17T16:13:26.220Z,2.40
2023-01-17T16:15:53.935Z,2.40
2023-01-17T16:18:26.310Z,2.40
2023-01-17T16:21:02.080Z,2.30
2023-01-17T16:23:29.123Z,2.30
2023-01-17T16:25:58.733Z,2.20
2023-01-17T16:28:25.885Z,2.20
2023-01-17T16:30:54.187Z,2.20
2023-01-17T16:33:21.205Z,2.20
2023-01-17T16:35:48.244Z,2.10
2023-01-17T16:38:16.211Z,2.00
2023-01-17T16:40:44.580Z,2.00
2023-01-17T16:43:12.351Z,2.00
2023-01-17T16:45:40.545Z,2.00
2023-01-17T16:48:07.705Z,1.90
2023-01-17T16:50:34.716Z,1.90
2023-01-17T16:53:02.404Z,1.80
2023-01-17T16:55:29.832Z,1.80
2023-01-17T16:57:59.360Z,1.80
2023-01-17T17:00:27.013Z,1.80
2023-01-17T17:02:54.207Z,1.80
2023-01-17T17:05:21.386Z,1.70
2023-01-17T17:07:51.650Z,1.70
2023-01-17T17:10:22.072Z,1.70
2023-01-17T17:12:48.974Z,1.70
2023-01-17T17:15:15.864Z,1.70
2023-01-17T17:17:43.384Z,1.70
2023-01-17T17:20:14.359Z,1.70
2023-01-17T17:22:44.170Z,1.70
2023-01-17T17:25:12.285Z,1.70
2023-01-17T17:27:39.489Z,1.70
2023-01-17T17:30:07.766Z,1.70
2023-01-17T17:32:34.724Z,1.60
2023-01-17T17:35:01.721Z,1.60
2023-01-17T17:37:29.292Z,1.60
2023-01-17T17:39:57.282Z,1.60
2023-01-17T17:42:24.523Z,1.60
2023-01-17T17:44:51.580Z,1.60
2023-01-17T17:47:19.149Z,1.50
2023-01-17T17:49:46.077Z,1.50
2023-01-17T17:52:13.154Z,1.50
2023-01-17T17:54:40.113Z,1.50
2023-01-17T17:57:07.741Z,1.50
2023-01-17T17:59:34.790Z,1.50
2023-01-17T18:02:03.035Z,1.40
2023-01-17T18:04:30.165Z,1.40
2023-01-17T18:06:57.792Z,1.40
2023-01-17T18:09:24.803Z,1.40
2023-01-17T18:11:51.843Z,1.30
2023-01-17T18:14:21.197Z,1.30
2023-01-17T18:16:48.387Z,1.30
2023-01-17T18:19:23.062Z,1.30
2023-01-17T18:21:51.432Z,1.30
2023-01-17T18:24:20.239Z,1.20
2023-01-17T18:26:51.844Z,1.20
2023-01-17T18:29:20.059Z,1.20
2023-01-17T18:31:47.476Z,1.20
2023-01-17T18:34:15.515Z,1.20
2023-01-17T18:36:43.044Z,1.20
2023-01-17T18:39:29.417Z,1.20
2023-01-17T18:41:56.458Z,1.10
2023-01-17T18:44:23.482Z,1.10
2023-01-17T18:46:51.282Z,1.10
2023-01-17T18:49:21.320Z,1.10
2023-01-17T18:51:53.745Z,1.10
2023-01-17T18:54:20.895Z,1.10
2023-01-17T18:56:48.202Z,1.10
2023-01-17T18:59:18.658Z,1.00
2023-01-17T19:01:45.882Z,1.00
2023-01-17T19:04:13.942Z,1.00
2023-01-17T19:06:45.274Z,1.00
2023-01-17T19:09:13.444Z,1.00
2023-01-17T19:11:40.388Z,1.00
2023-01-17T19:14:07.499Z,1.00
2023-01-17T19:16:39.462Z,1.00
2023-01-17T19:19:08.495Z,1.00
2023-01-17T19:21:35.627Z,1.00
2023-01-17T19:24:02.966Z,1.00
2023-01-17T19:26:30.238Z,1.00
2023-01-17T19:28:59.177Z,0.90
2023-01-17T19:31:30.077Z,1.00
2023-01-17T19:33:58.328Z,0.90
2023-01-17T19:36:27.404Z,0.90
2023-01-17T19:39:04.519Z,0.90
2023-01-17T19:41:34.149Z,0.90
2023-01-17T19:44:03.758Z,0.90
2023-01-17T19:46:31.493Z,0.90
2023-01-17T19:48:59.817Z,0.90
2023-01-17T19:51:27.133Z,0.90
2023-01-17T19:53:55.142Z,0.90
2023-01-17T19:56:23.895Z,0.90
2023-01-17T19:58:51.121Z,0.90
2023-01-17T20:01:19.426Z,0.90
2023-01-17T20:03:46.820Z,0.80
2023-01-17T20:06:15.221Z,0.90
2023-01-17T20:08:42.291Z,0.80
2023-01-17T20:11:11.499Z,0.80
2023-01-17T20:13:38.661Z,0.80
2023-01-17T20:16:07.014Z,0.80
2023-01-17T20:18:34.397Z,0.80
2023-01-17T20:21:09.722Z,0.80
2023-01-17T20:23:39.092Z,0.80
2023-01-17T20:26:06.282Z,0.80
2023-01-17T20:28:35.497Z,0.80
2023-01-17T20:31:14.833Z,0.80
2023-01-17T20:33:43.381Z,0.80
2023-01-17T20:36:12.069Z,0.70
2023-01-17T20:38:45.261Z,0.70
2023-01-17T20:41:46.353Z,0.80
2023-01-17T20:44:15.427Z,0.80
2023-01-17T20:46:42.693Z,0.70
2023-01-17T20:49:25.777Z,0.80
2023-01-17T20:51:52.740Z,0.70
2023-01-17T20:54:19.928Z,0.70
2023-01-17T20:56:49.893Z,0.70
2023-01-17T20:59:18.889Z,0.70
2023-01-17T21:01:46.177Z,0.70
2023-01-17T21:04:13.294Z,0.70
2023-01-17T21:06:40.701Z,0.70
2023-01-17T21:09:10.590Z,0.70
2023-01-17T21:11:37.809Z,0.70
2023-01-17T21:14:08.322Z,0.70
2023-01-17T21:16:35.778Z,0.70
2023-01-17T21:19:03.054Z,0.70
2023-01-17T21:21:30.231Z,0.60
2023-01-17T21:23:58.019Z,0.60
2023-01-17T21:26:28.698Z,0.70
2023-01-17T21:28:55.768Z,0.70
2023-01-17T21:31:27.821Z,0.60
2023-01-17T21:33:58.523Z,0.60
2023-01-17T21:36:27.417Z,0.60
2023-01-17T21:38:57.156Z,0.60
2023-01-17T21:41:29.027Z,0.60
2023-01-17T21:43:57.614Z,0.60
2023-01-17T21:46:24.859Z,0.60
2023-01-17T21:48:51.892Z,0.60
2023-01-17T21:51:19.867Z,0.60
2023-01-17T21:53:46.920Z,0.60
2023-01-17T21:56:32.908Z,0.60
2023-01-17T21:59:00.144Z,0.60
2023-01-17T22:01:29.046Z,0.60
2023-01-17T22:03:57.519Z,0.60
2023-01-17T22:06:27.195Z,0.60
2023-01-17T22:08:55.462Z,0.60
2023-01-17T22:11:24.486Z,0.60
2023-01-17T22:13:51.694Z,0.60
2023-01-17T22:16:20.109Z,0.60
2023-01-17T22:18:47.662Z,0.60
2023-01-17T22:21:24.412Z,0.50
2023-01-17T22:23:58.043Z,0.50
2023-01-17T22:26:27.168Z,0.60
2023-01-17T22:28:55.131Z,0.50
2023-01-17T22:31:24.300Z,0.50
2023-01-17T22:33:56.392Z,0.60
2023-01-17T22:36:23.685Z,0.50
2023-01-17T22:38:50.735Z,0.50
2023-01-17T22:41:20.303Z,0.50
2023-01-17T22:43:49.372Z,0.50
2023-01-17T22:46:18.341Z,0.50
2023-01-17T22:48:45.579Z,0.50
2023-01-17T22:51:14.845Z,0.50
2023-01-17T22:53:45.519Z,0.50
2023-01-17T22:56:16.907Z,0.50
2023-01-17T22:58:48.971Z,0.50
2023-01-17T23:01:19.369Z,0.40
2023-01-17T23:03:46.979Z,0.40
2023-01-17T23:06:22.105Z,0.40
2023-01-17T23:08:50.844Z,0.40
2023-01-17T23:11:41.166Z,0.40
2023-01-17T23:14:12.366Z,0.40
2023-01-17T23:16:59.214Z,0.50
2023-01-17T23:19:27.522Z,0.40
2023-01-17T23:22:16.063Z,0.40
2023-01-17T23:24:43.864Z,0.50
2023-01-17T23:27:33.190Z,0.40
2023-01-17T23:30:00.152Z,0.40
2023-01-17T23:32:27.283Z,0.40
2023-01-17T23:34:54.217Z,0.40
2023-01-17T23:37:21.187Z,0.40
2023-01-17T23:39:48.292Z,0.50
2023-01-17T23:42:33.965Z,0.40
2023-01-17T23:45:01.036Z,0.50
2023-01-17T23:47:27.996Z,0.50
2023-01-17T23:49:55.140Z,0.50
2023-01-17T23:52:22.093Z,0.50
2023-01-17T23:54:49.275Z,0.50
2023-01-17T23:57:16.346Z,0.50
2023-01-17T23:59:43.267Z,0.40
